Time;durP1;ratioP1;P1;durP2;ratioP2;P2;SDS_P1;SDS_P2;PMS_P1;PMS_P2;Temp;Humidity;BMP_temperature;BMP_pressure;BME280_temperature;BME280_humidity;BME280_pressure;Samples;Min_cycle;Max_cycle;Signal;HPM_P1;HPM_P2
2022/05/02 00:00:57;;;;;;;4.68;4.28;;;;;;;14.15;48.56;95017.63;4974736;28;20217;-62
2022/05/02 00:03:23;;;;;;;4.75;4.35;;;;;;;13.98;49.34;95016.84;4979732;28;20212;-62
2022/05/02 00:05:48;;;;;;;4.88;4.47;;;;;;;13.95;49.57;95019.84;4977183;28;20221;-62
2022/05/02 00:08:14;;;;;;;5.20;4.70;;;;;;;13.88;49.71;95017.09;4970894;28;20223;-62
2022/05/02 00:10:40;;;;;;;7.22;4.53;;;;;;;14.01;49.71;95016.53;4980384;28;20295;-62
2022/05/02 00:13:07;;;;;;;4.65;4.28;;;;;;;13.95;49.46;95010.09;4977711;28;20234;-62
2022/05/02 00:15:32;;;;;;;4.68;3.83;;;;;;;13.97;49.28;95016.03;4979356;28;20286;-62
2022/05/02 00:17:59;;;;;;;10.23;4.63;;;;;;;14.00;49.45;95028.91;4975423;28;20292;-62
2022/05/02 00:20:36;;;;;;;4.85;4.22;;;;;;;13.92;49.36;95017.56;4975963;28;20274;-62
2022/05/02 00:23:05;;;;;;;4.80;4.40;;;;;;;13.70;50.21;95009.38;4977073;28;20220;-62
2022/05/02 00:25:30;;;;;;;4.90;4.00;;;;;;;13.73;49.76;95005.59;4977145;28;20228;-62
2022/05/02 00:27:57;;;;;;;4.50;3.92;;;;;;;13.77;49.76;94998.97;4983351;28;20224;-62
2022/05/02 00:30:23;;;;;;;4.55;4.07;;;;;;;13.74;49.61;94996.66;4980868;28;20271;-62
2022/05/02 00:32:49;;;;;;;4.35;3.95;;;;;;;13.81;49.73;95003.72;4970811;28;20237;-62
2022/05/02 00:35:14;;;;;;;4.57;3.95;;;;;;;13.75;49.55;95003.59;4965249;28;20288;-62
2022/05/02 00:37:41;;;;;;;4.40;3.70;;;;;;;13.67;50.00;94999.97;4972118;28;20224;-62
2022/05/02 00:40:09;;;;;;;4.13;3.80;;;;;;;13.83;49.33;94998.28;4967199;28;20228;-62
2022/05/02 00:42:35;;;;;;;4.07;3.67;;;;;;;13.85;49.38;95005.03;4981212;28;20212;-62
2022/05/02 00:45:00;;;;;;;4.20;3.70;;;;;;;13.86;49.24;94996.09;4981937;28;20239;-62
2022/05/02 00:47:27;;;;;;;4.40;3.97;;;;;;;13.80;49.74;95003.91;4966658;28;20262;-62
2022/05/02 00:49:53;;;;;;;5.68;4.03;;;;;;;13.82;49.41;94996.59;4977387;28;20216;-62
2022/05/02 00:52:19;;;;;;;5.70;4.25;;;;;;;13.88;48.95;95001.22;4978269;28;20236;-62
2022/05/02 00:54:46;;;;;;;4.18;3.60;;;;;;;13.90;48.86;94993.97;4972141;28;20220;-62
2022/05/02 00:57:16;;;;;;;4.32;3.83;;;;;;;13.80;49.36;94988.06;4973761;28;20204;-63
2022/05/02 00:59:42;;;;;;;3.97;3.65;;;;;;;13.79;49.22;94991.66;4978475;28;20228;-62
2022/05/02 01:02:14;;;;;;;4.53;3.50;;;;;;;13.78;49.25;94990.84;4972271;28;20252;-62
2022/05/02 01:04:40;;;;;;;4.15;3.75;;;;;;;13.78;49.05;94980.28;4966047;28;20279;-62
2022/05/02 01:07:11;;;;;;;4.18;3.80;;;;;;;13.75;49.27;94987.75;4990454;28;20225;-62
2022/05/02 01:09:44;;;;;;;4.07;3.70;;;;;;;13.82;49.10;94981.59;4979617;28;20218;-62
2022/05/02 01:12:14;;;;;;;4.10;3.47;;;;;;;13.75;49.17;94985.09;4973106;28;20263;-62
2022/05/02 01:14:40;;;;;;;5.95;3.58;;;;;;;13.73;49.53;94976.50;4960848;28;20221;-62
2022/05/02 01:17:06;;;;;;;5.00;3.90;;;;;;;13.68;49.29;94969.94;4964571;28;20243;-62
2022/05/02 01:19:31;;;;;;;6.20;3.50;;;;;;;13.70;49.28;94967.09;4971059;28;20260;-62
2022/05/02 01:21:57;;;;;;;3.67;3.38;;;;;;;13.76;49.32;94973.53;4973654;28;20228;-62
2022/05/02 01:24:32;;;;;;;4.77;3.63;;;;;;;13.79;48.80;94967.88;4976979;28;20297;-62
2022/05/02 01:26:58;;;;;;;4.40;3.72;;;;;;;13.71;49.29;94967.94;4973562;28;20230;-62
2022/05/02 01:29:24;;;;;;;4.25;3.58;;;;;;;13.74;49.14;94967.56;4968751;28;20263;-62
2022/05/02 01:31:49;;;;;;;3.47;3.17;;;;;;;13.75;49.11;94958.69;4976279;28;20243;-62
2022/05/02 01:34:15;;;;;;;3.80;3.17;;;;;;;13.63;49.43;94955.56;4973996;28;20225;-62
2022/05/02 01:36:42;;;;;;;4.00;3.50;;;;;;;13.67;48.94;94960.34;4973004;28;20330;-62
2022/05/02 01:39:08;;;;;;;3.42;2.97;;;;;;;13.64;49.60;94955.41;4975655;28;20203;-62
2022/05/02 01:41:33;;;;;;;5.63;3.10;;;;;;;13.65;49.40;94943.84;4969549;28;20245;-62
2022/05/02 01:43:59;;;;;;;3.22;2.90;;;;;;;13.62;49.49;94946.81;4965461;28;20291;-62
2022/05/02 01:46:24;;;;;;;3.42;3.13;;;;;;;13.62;49.43;94946.00;4974848;28;20222;-62
2022/05/02 01:48:50;;;;;;;3.78;2.90;;;;;;;13.59;49.54;94939.25;4971436;28;20220;-62
2022/05/02 01:51:15;;;;;;;3.15;2.85;;;;;;;13.56;49.72;94936.13;4966613;28;20230;-62
2022/05/02 01:53:40;;;;;;;3.35;2.90;;;;;;;13.63;49.79;94937.94;4972682;28;20234;-62
2022/05/02 01:56:06;;;;;;;3.40;3.10;;;;;;;13.64;49.45;94942.19;4961360;28;20231;-62
2022/05/02 01:58:31;;;;;;;3.33;3.03;;;;;;;13.55;49.60;94927.41;4962755;28;20231;-61
2022/05/02 02:00:57;;;;;;;4.90;2.65;;;;;;;13.57;49.72;94937.78;4969772;28;20231;-61
2022/05/02 02:03:23;;;;;;;3.13;2.73;;;;;;;13.74;49.40;94943.78;4975989;28;20223;-61
2022/05/02 02:05:48;;;;;;;3.83;3.53;;;;;;;13.50;49.68;94940.28;4973878;28;20207;-61
2022/05/02 02:08:18;;;;;;;3.37;2.87;;;;;;;13.38;50.21;94936.38;4980602;28;20238;-63
2022/05/02 02:10:44;;;;;;;4.45;3.10;;;;;;;13.39;50.17;94930.06;4976011;28;20236;-63
2022/05/02 02:13:14;;;;;;;3.45;3.15;;;;;;;13.35;50.23;94924.31;4980848;28;20244;-62
2022/05/02 02:15:39;;;;;;;5.05;3.55;;;;;;;13.37;50.35;94926.81;4983973;28;20231;-63
2022/05/02 02:18:05;;;;;;;4.03;3.50;;;;;;;13.29;50.71;94911.00;4979507;28;20212;-61
2022/05/02 02:20:32;;;;;;;3.60;3.30;;;;;;;13.26;51.07;94922.72;4975977;28;20227;-60
2022/05/02 02:22:58;;;;;;;3.95;3.58;;;;;;;13.22;50.95;94914.28;4966981;28;20260;-61
2022/05/02 02:25:23;;;;;;;4.28;3.97;;;;;;;13.31;50.90;94909.84;4950857;28;20237;-63
2022/05/02 02:27:49;;;;;;;4.53;4.13;;;;;;;13.35;50.70;94905.03;4945974;28;20229;-63
2022/05/02 02:30:14;;;;;;;5.22;4.72;;;;;;;13.32;50.48;94902.72;4942623;28;20530;-63
2022/05/02 02:32:41;;;;;;;4.45;4.05;;;;;;;13.24;50.61;94909.66;4964141;28;20244;-63
2022/05/02 02:35:07;;;;;;;4.20;3.90;;;;;;;13.21;50.84;94899.44;4970613;28;20278;-60
2022/05/02 02:37:33;;;;;;;4.72;4.22;;;;;;;13.13;51.56;94890.72;4956549;28;20273;-61
2022/05/02 02:39:58;;;;;;;5.67;4.60;;;;;;;13.12;51.32;94894.34;4951584;28;20240;-60
2022/05/02 02:42:24;;;;;;;5.38;4.88;;;;;;;13.17;51.18;94886.72;4969607;28;20670;-64
2022/05/02 02:44:50;;;;;;;5.55;4.80;;;;;;;13.11;51.45;94888.25;4968928;28;20247;-60
2022/05/02 02:47:16;;;;;;;6.93;5.28;;;;;;;13.06;51.63;94893.19;4974090;28;20228;-61
2022/05/02 02:49:41;;;;;;;5.35;4.88;;;;;;;12.95;51.94;94883.84;4977832;28;20239;-60
2022/05/02 02:52:08;;;;;;;5.35;4.85;;;;;;;12.85;52.48;94891.13;4973225;28;20231;-61
2022/05/02 02:54:34;;;;;;;5.03;4.63;;;;;;;12.79;52.50;94889.97;4980566;28;20440;-61
2022/05/02 02:57:00;;;;;;;5.40;4.93;;;;;;;12.80;52.47;94890.78;4976852;28;20200;-61
2022/05/02 02:59:25;;;;;;;5.07;4.60;;;;;;;12.75;52.74;94888.69;4973313;28;20254;-61
2022/05/02 03:01:51;;;;;;;4.97;4.55;;;;;;;12.77;53.06;94894.59;4967429;28;20221;-61
2022/05/02 03:07:01;;;;;;;6.50;4.70;;;;;;;12.73;52.70;94876.66;4964202;28;20254;-61
2022/05/02 03:09:28;;;;;;;6.47;4.53;;;;;;;12.76;52.66;94878.94;4977422;28;20208;-61
2022/05/02 03:11:53;;;;;;;6.27;4.87;;;;;;;12.58;53.18;94879.94;4962729;28;20227;-61
2022/05/02 03:14:19;;;;;;;4.90;4.50;;;;;;;12.53;53.21;94876.19;4986293;28;20224;-61
2022/05/02 03:16:44;;;;;;;4.85;4.45;;;;;;;12.53;53.37;94868.25;4965589;28;20235;-61
2022/05/02 03:19:10;;;;;;;4.80;4.40;;;;;;;12.59;53.29;94878.16;4974656;28;20226;-61
2022/05/02 03:21:35;;;;;;;4.90;4.50;;;;;;;12.57;53.32;94867.78;4970601;28;20208;-61
2022/05/02 03:24:01;;;;;;;5.20;4.70;;;;;;;12.51;53.30;94872.88;4968954;28;20204;-61
2022/05/02 03:26:26;;;;;;;4.72;4.30;;;;;;;12.54;53.34;94883.13;4971813;28;20246;-61
2022/05/02 03:28:52;;;;;;;4.60;4.20;;;;;;;12.37;54.05;94879.66;4972711;28;20227;-61
2022/05/02 03:31:17;;;;;;;5.90;5.07;;;;;;;12.41;53.61;94885.44;4975178;28;20228;-62
2022/05/02 03:33:43;;;;;;;6.33;4.53;;;;;;;12.36;53.70;94884.09;4974697;28;20235;-61
2022/05/02 03:36:08;;;;;;;5.10;4.60;;;;;;;12.41;53.67;94880.16;4970193;28;20212;-61
2022/05/02 03:38:33;;;;;;;6.23;4.83;;;;;;;12.36;53.64;94884.09;4968565;28;20225;-61
2022/05/02 03:40:59;;;;;;;4.80;4.30;;;;;;;12.35;53.75;94879.00;4969247;28;20224;-61
2022/05/02 03:43:24;;;;;;;5.30;4.70;;;;;;;12.30;53.95;94876.88;4994032;28;20227;-61
2022/05/02 03:45:50;;;;;;;5.05;4.32;;;;;;;12.29;54.00;94879.66;4969177;28;20278;-61
2022/05/02 03:48:15;;;;;;;5.17;4.30;;;;;;;12.34;54.07;94886.06;4979557;28;20204;-61
2022/05/02 03:50:40;;;;;;;5.20;4.67;;;;;;;12.31;53.71;94885.59;4968625;28;20228;-61
2022/05/02 03:53:08;;;;;;;5.90;4.63;;;;;;;12.37;53.79;94887.56;4974939;28;20232;-61
2022/05/02 03:55:34;;;;;;;6.03;4.80;;;;;;;12.34;53.65;94887.91;4963354;28;20251;-61
2022/05/02 03:57:59;;;;;;;4.80;4.40;;;;;;;12.33;53.80;94894.16;4961433;28;20235;-61
2022/05/02 04:00:25;;;;;;;4.82;4.05;;;;;;;12.32;53.77;94897.78;4964123;28;20200;-61
2022/05/02 04:02:51;;;;;;;5.97;4.73;;;;;;;12.20;53.70;94894.66;4967750;28;20205;-61
2022/05/02 04:05:16;;;;;;;6.03;4.50;;;;;;;12.34;53.33;94899.25;4978502;28;20239;-61
2022/05/02 04:07:42;;;;;;;4.80;4.38;;;;;;;12.27;53.92;94890.38;4970946;28;20315;-61
2022/05/02 04:10:08;;;;;;;7.87;4.33;;;;;;;12.36;53.41;94889.38;4963036;28;20334;-61
2022/05/02 04:12:38;;;;;;;4.22;3.83;;;;;;;12.33;53.50;94883.63;4981488;28;20203;-61
2022/05/02 04:15:09;;;;;;;4.78;4.05;;;;;;;12.25;53.38;94887.09;4969829;28;20370;-61
2022/05/02 04:17:35;;;;;;;4.80;4.03;;;;;;;12.32;53.58;94893.34;4972290;28;20300;-62
2022/05/02 04:20:01;;;;;;;6.77;4.20;;;;;;;12.49;52.76;94896.78;4965542;28;20312;-62
2022/05/02 04:22:27;;;;;;;4.80;4.33;;;;;;;12.48;52.70;94896.94;4977808;28;20236;-61
2022/05/02 04:24:52;;;;;;;6.30;4.37;;;;;;;12.53;52.84;94895.44;4969882;28;20279;-61
2022/05/02 04:27:18;;;;;;;5.72;4.22;;;;;;;12.55;52.13;94898.75;4976878;28;20219;-61
2022/05/02 04:29:43;;;;;;;6.85;4.10;;;;;;;12.58;52.16;94887.88;4971205;28;20236;-61
2022/05/02 04:32:08;;;;;;;4.82;3.97;;;;;;;12.58;52.19;94890.50;4974905;28;20263;-61
2022/05/02 04:34:34;;;;;;;4.75;3.50;;;;;;;12.67;51.74;94890.50;4972832;28;20231;-67
2022/05/02 04:36:59;;;;;;;6.00;4.28;;;;;;;12.69;51.82;94885.88;4976849;28;20228;-66
2022/05/02 04:39:25;;;;;;;4.90;3.85;;;;;;;12.70;51.40;94877.81;4970505;28;20208;-66
2022/05/02 04:41:50;;;;;;;7.10;4.05;;;;;;;12.82;50.99;94888.00;4964644;28;20221;-66
2022/05/02 04:44:16;;;;;;;5.78;4.00;;;;;;;12.86;51.09;94884.03;4970362;28;20227;-66
2022/05/02 04:46:41;;;;;;;5.03;3.92;;;;;;;12.86;50.90;94895.41;4967687;28;20263;-66
2022/05/02 04:49:07;;;;;;;5.38;3.95;;;;;;;12.75;51.25;94890.47;4972247;28;20232;-66
2022/05/02 04:51:32;;;;;;;6.80;4.05;;;;;;;12.82;51.06;94893.28;4968551;28;20208;-66
2022/05/02 04:53:57;;;;;;;5.15;3.70;;;;;;;12.81;50.82;94895.09;4975554;28;20235;-67
2022/05/02 04:56:23;;;;;;;6.57;4.25;;;;;;;12.81;51.06;94895.09;4971632;28;20259;-67
2022/05/02 04:58:48;;;;;;;4.40;4.00;;;;;;;12.89;50.86;94891.63;4976128;28;20223;-66
2022/05/02 05:01:14;;;;;;;5.38;4.20;;;;;;;12.86;50.71;94884.03;4984216;28;20337;-66
2022/05/02 05:03:40;;;;;;;7.35;4.22;;;;;;;12.88;51.21;94887.31;4975038;28;20203;-66
2022/05/02 05:06:05;;;;;;;4.53;4.13;;;;;;;12.89;50.65;94883.72;4974269;28;20220;-66
2022/05/02 05:08:31;;;;;;;5.17;4.30;;;;;;;12.87;50.70;94883.84;4981592;28;20223;-67
2022/05/02 05:11:09;;;;;;;5.45;4.85;;;;;;;12.98;50.52;94882.66;4976472;28;20223;-67
2022/05/02 05:16:20;;;;;;;5.60;5.00;;;;;;;12.97;50.36;94883.69;4976669;28;20232;-65
2022/05/02 05:16:52;;;;;;;8.68;4.72;;;;;;;12.95;50.42;94883.03;4958886;28;20411;-66
2022/05/02 05:19:50;;;;;;;6.25;5.65;;;;;;;12.94;50.04;94887.47;4970194;28;20232;-66
2022/05/02 05:22:36;;;;;;;6.30;5.63;;;;;;;12.98;50.00;94878.22;4931015;29;20237;-66
2022/05/02 05:25:42;;;;;;;7.90;5.72;;;;;;;13.11;49.73;94871.59;4933092;29;20237;-67
2022/05/02 05:28:36;;;;;;;7.25;5.97;;;;;;;13.16;49.36;94869.25;4926293;29;20360;-65
2022/05/02 05:31:29;;;;;;;9.05;6.07;;;;;;;13.08;49.28;94874.56;4919452;29;20272;-65
2022/05/02 05:34:16;;;;;;;8.10;6.28;;;;;;;12.96;49.97;94874.09;4932969;29;20240;-66
2022/05/02 05:37:21;;;;;;;7.72;5.93;;;;;;;13.19;49.75;94879.47;4933718;29;20233;-65
2022/05/02 05:39:55;;;;;;;6.72;6.13;;;;;;;13.23;49.65;94878.13;4929683;29;20303;-66
2022/05/02 05:42:26;;;;;;;6.60;6.00;;;;;;;13.29;48.91;94874.03;4934250;29;20201;-66
2022/05/02 05:45:37;;;;;;;6.33;5.20;;;;;;;13.25;49.25;94876.97;4933590;29;20298;-65
2022/05/02 05:48:14;;;;;;;7.65;5.90;;;;;;;13.16;49.94;94878.00;4931037;29;20238;-66
2022/05/02 05:50:49;;;;;;;6.17;5.47;;;;;;;13.30;49.66;94878.31;4935849;29;20245;-65
2022/05/02 05:53:51;;;;;;;7.23;4.60;;;;;;;13.45;49.65;94874.75;4935229;29;20236;-66
2022/05/02 05:56:38;;;;;;;7.63;4.60;;;;;;;13.46;50.03;94875.59;4932202;29;20304;-67
2022/05/02 05:59:08;;;;;;;6.82;4.50;;;;;;;13.48;49.79;94872.78;4964577;28;20224;-67
2022/05/02 06:01:47;;;;;;;5.67;5.00;;;;;;;13.54;49.06;94869.44;4973963;28;20240;-66
2022/05/02 06:04:15;;;;;;;4.95;4.47;;;;;;;13.57;49.88;94871.72;4973920;28;20223;-67
2022/05/02 06:06:41;;;;;;;6.25;4.50;;;;;;;13.51;49.93;94867.97;4978488;28;20237;-66
2022/05/02 06:09:10;;;;;;;6.00;5.00;;;;;;;13.54;49.66;94867.63;4980873;28;20203;-67
2022/05/02 06:11:40;;;;;;;5.03;4.50;;;;;;;13.70;48.69;94865.88;4968136;28;20247;-66
2022/05/02 06:14:06;;;;;;;5.13;4.38;;;;;;;13.70;49.15;94857.97;4971898;28;20228;-67
2022/05/02 06:19:24;;;;;;;5.13;3.50;;;;;;;13.80;48.25;94856.72;4974540;28;20227;-67
2022/05/02 06:21:50;;;;;;;4.65;4.15;;;;;;;13.86;48.22;94856.03;4966295;28;20275;-66
2022/05/02 06:24:16;;;;;;;4.13;3.72;;;;;;;13.93;48.11;94856.16;4969355;28;20201;-67
2022/05/02 06:26:43;;;;;;;8.88;4.20;;;;;;;13.68;48.24;94843.13;4984570;28;20224;-66
2022/05/02 06:29:11;;;;;;;5.57;4.57;;;;;;;13.98;48.03;94853.81;4983974;28;20250;-67
2022/05/02 06:31:40;;;;;;;7.15;4.50;;;;;;;14.03;47.53;94850.63;4966823;28;20353;-66
2022/05/02 06:34:06;;;;;;;7.72;4.45;;;;;;;14.08;47.64;94845.63;4971253;28;20302;-67
2022/05/02 06:36:50;;;;;;;6.10;4.78;;;;;;;14.02;47.69;94848.97;4972532;28;20279;-66
2022/05/02 06:39:16;;;;;;;5.25;4.75;;;;;;;14.07;47.03;94849.28;4964792;28;20200;-67
2022/05/02 06:42:01;;;;;;;6.15;4.78;;;;;;;14.05;46.96;94838.84;4973895;28;20236;-67
2022/05/02 06:44:29;;;;;;;6.85;5.90;;;;;;;14.11;47.17;94843.47;4980585;28;20308;-67
2022/05/02 06:47:19;;;;;;;5.50;4.78;;;;;;;14.01;46.97;94850.81;4961934;28;20237;-66
2022/05/02 06:49:49;;;;;;;6.25;5.63;;;;;;;13.82;47.42;94840.69;4957777;28;20225;-66
2022/05/02 06:52:22;;;;;;;7.40;6.70;;;;;;;13.69;47.70;94843.94;4956526;28;20227;-66
2022/05/02 06:55:11;;;;;;;7.43;6.72;;;;;;;13.77;47.41;94840.41;4969326;28;20232;-67
2022/05/02 06:57:39;;;;;;;8.00;6.47;;;;;;;13.87;47.51;94831.25;4960109;28;20215;-66
2022/05/02 07:00:10;;;;;;;11.23;6.40;;;;;;;13.67;47.44;94838.81;4969597;28;20219;-66
2022/05/02 07:02:50;;;;;;;7.33;6.70;;;;;;;13.72;47.36;94834.84;4971895;28;20253;-66
2022/05/02 07:05:27;;;;;;;8.40;7.30;;;;;;;13.41;47.59;94827.75;4980033;28;20232;-66
2022/05/02 07:08:06;;;;;;;10.40;7.18;;;;;;;13.65;47.77;94824.94;4972132;28;20235;-66
2022/05/02 07:10:36;;;;;;;8.13;7.53;;;;;;;13.87;47.49;94820.69;4971371;28;20306;-66
2022/05/02 07:13:16;;;;;;;8.02;7.32;;;;;;;14.09;46.68;94823.50;4971860;28;20227;-66
2022/05/02 07:16:01;;;;;;;8.30;7.05;;;;;;;14.06;46.46;94819.38;4982870;28;20242;-66
2022/05/02 07:18:57;;;;;;;7.25;6.57;;;;;;;14.22;45.90;94822.84;4976815;28;20202;-66
2022/05/02 07:21:31;;;;;;;7.88;7.05;;;;;;;14.46;45.25;94816.53;4958358;28;20204;-65
2022/05/02 07:24:00;;;;;;;7.20;6.40;;;;;;;14.51;44.93;94822.09;4972570;28;20222;-62
2022/05/02 07:26:28;;;;;;;6.45;5.85;;;;;;;14.68;44.52;94817.50;4972041;28;20243;-62
2022/05/02 07:28:59;;;;;;;11.00;6.38;;;;;;;14.76;44.91;94820.88;4963796;28;20230;-62
2022/05/02 07:31:25;;;;;;;6.45;5.65;;;;;;;15.08;44.36;94813.56;4970849;28;20228;-62
2022/05/02 07:33:53;;;;;;;5.50;4.95;;;;;;;15.09;43.75;94804.59;4970489;28;20240;-62
2022/05/02 07:36:22;;;;;;;5.55;5.13;;;;;;;15.11;43.62;94815.03;4968845;28;20197;-61
2022/05/02 07:39:01;;;;;;;5.70;5.28;;;;;;;15.04;44.25;94816.75;4968365;28;20308;-61
2022/05/02 07:41:27;;;;;;;5.93;5.30;;;;;;;15.10;44.11;94810.72;4977925;28;20221;-61
2022/05/02 07:43:52;;;;;;;7.80;5.53;;;;;;;15.46;43.45;94808.09;4979227;28;20227;-61
2022/05/02 07:46:23;;;;;;;6.30;5.30;;;;;;;15.61;42.85;94813.34;4977110;28;20224;-61
2022/05/02 07:48:51;;;;;;;7.60;4.05;;;;;;;15.76;42.40;94811.50;4967952;28;20368;-61
2022/05/02 07:51:19;;;;;;;7.55;4.20;;;;;;;15.83;41.99;94817.72;4945607;28;20221;-61
2022/05/02 07:53:45;;;;;;;6.45;4.95;;;;;;;15.88;41.75;94810.00;4980571;28;20460;-62
2022/05/02 07:56:12;;;;;;;5.43;4.57;;;;;;;16.13;41.32;94817.56;4976727;28;20225;-62
2022/05/02 07:58:41;;;;;;;4.55;4.15;;;;;;;16.23;40.92;94819.91;4967867;28;20709;-62
2022/05/02 08:01:07;;;;;;;6.00;4.55;;;;;;;16.12;40.29;94815.94;4958974;28;20224;-61
2022/05/02 08:03:33;;;;;;;5.72;5.20;;;;;;;16.13;40.72;94814.09;4967156;28;20330;-62
2022/05/02 08:06:11;;;;;;;5.80;5.13;;;;;;;16.24;40.19;94832.97;4965131;28;20491;-63
2022/05/02 08:09:07;;;;;;;5.43;4.93;;;;;;;16.08;39.52;94822.63;4978620;28;20267;-64
2022/05/02 08:12:02;;;;;;;5.40;4.90;;;;;;;16.08;40.08;94841.19;4973532;28;20223;-64
2022/05/02 08:14:36;;;;;;;5.25;4.75;;;;;;;16.20;39.23;94839.69;4968062;28;20228;-62
2022/05/02 08:17:07;;;;;;;5.40;4.90;;;;;;;16.28;39.73;94836.06;4970539;28;20224;-63
2022/05/02 08:19:56;;;;;;;5.93;5.43;;;;;;;16.15;39.13;94834.13;4957890;28;20231;-64
2022/05/02 08:28:23;;;;;;;7.35;6.65;;;;;;;16.01;40.40;94833.19;4975299;28;20368;-64
2022/05/02 08:30:58;;;;;;;6.38;5.90;;;;;;;16.23;39.10;94835.81;4973266;28;20225;-64
2022/05/02 08:33:29;;;;;;;6.75;5.85;;;;;;;16.08;39.27;94833.22;4963349;28;20246;-64
2022/05/02 08:36:02;;;;;;;8.10;6.35;;;;;;;15.82;39.24;94833.78;4969733;28;20254;-64
2022/05/02 08:38:44;;;;;;;7.00;6.50;;;;;;;15.83;39.12;94833.63;4982010;28;20231;-64
2022/05/02 08:41:28;;;;;;;7.65;7.05;;;;;;;15.91;38.87;94830.03;4968788;28;20221;-63
2022/05/02 08:44:25;;;;;;;7.95;7.22;;;;;;;15.79;38.72;94827.03;4973013;28;20250;-64
2022/05/02 08:47:18;;;;;;;8.02;7.32;;;;;;;16.04;38.44;94826.69;4962014;28;20247;-64
2022/05/02 08:50:03;;;;;;;7.53;6.93;;;;;;;15.66;39.23;94826.84;4983090;28;20243;-64
2022/05/02 08:52:58;;;;;;;8.15;7.35;;;;;;;15.96;38.98;94808.22;4980966;28;20264;-64
2022/05/02 08:55:39;;;;;;;6.85;6.35;;;;;;;16.10;38.37;94797.56;4963896;28;20256;-68
2022/05/02 08:58:23;;;;;;;6.82;6.32;;;;;;;16.13;37.94;94803.50;4975330;28;20240;-59
2022/05/02 09:01:28;;;;;;;9.00;6.97;;;;;;;16.20;38.59;94802.53;4984077;28;20279;-62
2022/05/02 09:04:34;;;;;;;6.93;6.15;;;;;;;16.42;37.25;94791.88;4906470;29;20307;-62
2022/05/02 09:07:41;;;;;;;6.43;5.90;;;;;;;16.65;37.75;94787.16;4917027;29;21371;-62
2022/05/02 09:10:14;;;;;;;6.82;6.03;;;;;;;16.58;37.32;94783.63;4898348;29;20242;-62
2022/05/02 09:13:14;;;;;;;6.05;5.55;;;;;;;16.48;36.41;94780.50;4878790;29;20219;-62
2022/05/02 09:16:07;;;;;;;5.68;5.18;;;;;;;16.49;36.24;94782.13;4895182;29;20215;-62
2022/05/02 09:18:50;;;;;;;5.13;4.80;;;;;;;16.62;35.24;94774.25;4903111;29;20242;-62
2022/05/02 09:21:40;;;;;;;6.72;4.63;;;;;;;16.86;34.86;94767.66;4902049;29;20218;-62
2022/05/02 09:24:11;;;;;;;6.65;3.70;;;;;;;17.40;32.16;94774.03;4877196;29;20231;-62
2022/05/02 09:26:57;;;;;;;5.32;3.42;;;;;;;17.38;31.84;94760.94;4898159;29;20270;-62
2022/05/02 09:29:54;;;;;;;3.60;3.10;;;;;;;17.43;31.57;94768.34;4891630;29;20231;-62
2022/05/02 09:32:47;;;;;;;5.03;4.10;;;;;;;18.05;31.08;94761.91;4836975;29;20240;-62
2022/05/02 09:35:31;;;;;;;3.90;3.60;;;;;;;18.18;30.62;94753.13;4836729;29;20280;-64
2022/05/02 09:37:58;;;;;;;4.00;3.60;;;;;;;18.31;30.15;94752.31;4843241;29;20240;-64
2022/05/02 09:40:35;;;;;;;9.02;3.45;;;;;;;18.23;29.28;94748.00;4830174;29;20270;-63
2022/05/02 09:43:22;;;;;;;7.80;3.65;;;;;;;18.39;28.67;94745.91;4845709;29;20247;-64
2022/05/02 09:52:09;;;;;;;4.43;3.17;;;;;;;18.66;28.98;94728.06;4932130;29;20241;-64
2022/05/02 09:58:16;;;;;;;5.00;2.80;;;;;;;18.73;28.26;94727.00;4936919;29;20360;-63
2022/05/02 10:01:06;;;;;;;3.42;3.03;;;;;;;18.72;28.81;94724.56;4933231;28;20288;-64
2022/05/02 10:03:53;;;;;;;3.35;3.05;;;;;;;18.85;28.58;94726.41;4923800;28;20263;-64
2022/05/02 10:06:46;;;;;;;3.65;2.78;;;;;;;18.95;26.90;94724.09;4902854;29;20300;-63
2022/05/02 10:09:29;;;;;;;3.47;2.60;;;;;;;18.88;27.06;94726.00;4914822;29;20240;-64
2022/05/02 10:12:25;;;;;;;3.38;2.97;;;;;;;18.85;27.88;94719.22;4934163;28;20303;-66
2022/05/02 10:15:00;;;;;;;3.80;3.08;;;;;;;18.90;27.55;94714.09;4917538;29;20269;-62
2022/05/02 10:17:52;;;;;;;3.40;3.10;;;;;;;19.13;27.75;94726.91;4916014;29;20228;-62
2022/05/02 10:20:22;;;;;;;4.63;3.70;;;;;;;19.11;27.40;94720.97;4932823;29;20229;-68
2022/05/02 10:23:06;;;;;;;4.93;3.40;;;;;;;19.27;27.36;94718.84;4916705;29;20236;-68
2022/05/02 10:25:41;;;;;;;3.55;3.00;;;;;;;18.98;27.97;94721.03;4916274;29;20233;-69
2022/05/02 10:28:28;;;;;;;4.43;2.97;;;;;;;19.05;27.49;94713.00;4920960;29;20233;-70
2022/05/02 10:31:25;;;;;;;3.63;2.75;;;;;;;19.28;27.71;94721.31;4940537;28;20233;-69
2022/05/02 10:33:53;;;;;;;3.28;2.65;;;;;;;19.49;26.42;94720.19;4930941;29;20239;-67
2022/05/02 10:36:27;;;;;;;5.55;3.15;;;;;;;19.45;26.61;94700.28;4926683;29;20209;-63
2022/05/02 10:38:55;;;;;;;4.57;2.83;;;;;;;19.53;26.05;94704.56;4933864;29;20221;-63
2022/05/02 10:41:35;;;;;;;3.13;2.42;;;;;;;19.65;25.08;94702.84;4932139;29;20236;-63
2022/05/02 10:44:03;;;;;;;2.08;1.90;;;;;;;19.74;25.47;94706.91;4931416;29;20228;-60
2022/05/02 10:46:31;;;;;;;2.95;2.75;;;;;;;19.85;26.36;94705.38;4961397;28;20231;-60
2022/05/02 10:49:02;;;;;;;5.43;2.45;;;;;;;20.01;25.78;94696.03;4968241;28;20256;-60
2022/05/02 10:52:02;;;;;;;2.95;2.47;;;;;;;20.02;25.59;94697.66;4964847;28;20219;-66
2022/05/02 10:54:50;;;;;;;2.75;2.55;;;;;;;19.92;26.17;94692.00;4962072;28;20200;-65
2022/05/02 10:57:36;;;;;;;3.85;2.85;;;;;;;20.00;26.16;94697.06;4978092;28;20204;-65
2022/05/02 11:00:06;;;;;;;2.60;2.40;;;;;;;20.03;25.94;94685.97;4971800;28;20271;-64
2022/05/02 11:03:05;;;;;;;3.28;2.42;;;;;;;20.20;24.97;94687.03;4962314;28;20225;-64
2022/05/02 11:05:43;;;;;;;6.85;2.25;;;;;;;20.37;24.73;94687.28;4988419;28;20238;-65
2022/05/02 11:08:12;;;;;;;3.28;2.45;;;;;;;20.28;24.67;94684.06;4977351;28;20245;-64
2022/05/02 11:10:43;;;;;;;4.93;3.85;;;;;;;20.52;25.82;94686.94;4954933;28;20230;-63
2022/05/02 11:13:20;;;;;;;3.53;3.13;;;;;;;20.50;26.67;94680.97;4968816;28;20247;-63
2022/05/02 11:16:13;;;;;;;2.78;2.58;;;;;;;20.62;26.11;94679.25;4964832;28;20231;-63
2022/05/02 11:21:46;;;;;;;2.67;2.47;;;;;;;20.75;25.81;94685.50;4973775;28;20231;-63
2022/05/02 11:24:30;;;;;;;2.63;2.40;;;;;;;20.61;26.13;94687.47;4970862;28;20212;-63
2022/05/02 11:27:29;;;;;;;3.47;2.50;;;;;;;20.49;26.80;94690.03;4967355;28;20235;-64
2022/05/02 11:30:18;;;;;;;2.80;2.45;;;;;;;20.18;27.45;94683.78;4952322;28;20248;-63
2022/05/02 11:33:00;;;;;;;3.00;2.42;;;;;;;19.89;27.80;94681.75;4984526;28;20244;-63
2022/05/02 11:35:34;;;;;;;6.05;2.80;;;;;;;19.69;28.33;94693.38;4979345;28;20220;-63
2022/05/02 11:38:30;;;;;;;2.80;2.60;;;;;;;19.43;28.66;94696.19;4984542;28;20223;-63
2022/05/02 11:41:14;;;;;;;7.15;2.67;;;;;;;19.11;29.65;94699.66;4985595;28;20232;-63
2022/05/02 11:43:39;;;;;;;3.92;2.40;;;;;;;18.95;29.79;94692.97;4964325;28;20312;-64
2022/05/02 11:46:17;;;;;;;5.63;2.90;;;;;;;18.88;30.46;94697.50;4971079;28;20307;-63
2022/05/02 11:49:04;;;;;;;3.95;2.78;;;;;;;18.81;31.20;94702.03;4984656;28;20224;-63
2022/05/02 11:51:30;;;;;;;3.13;2.72;;;;;;;18.82;30.21;94690.34;4966741;28;20193;-63
2022/05/02 11:53:58;;;;;;;5.10;2.70;;;;;;;18.70;29.83;94689.31;4966478;28;20230;-63
2022/05/02 11:56:41;;;;;;;3.05;2.85;;;;;;;18.64;30.08;94679.53;4977996;28;20221;-63
2022/05/02 11:59:12;;;;;;;2.80;2.60;;;;;;;18.73;28.90;94686.25;4980473;28;20219;-63
2022/05/02 12:01:45;;;;;;;2.67;2.47;;;;;;;18.64;29.05;94675.00;4968815;28;20241;-63
2022/05/02 12:04:17;;;;;;;5.18;2.65;;;;;;;18.65;28.14;94673.16;4976013;28;20229;-68
2022/05/02 12:06:59;;;;;;;8.60;2.92;;;;;;;18.59;28.58;94672.16;4969673;28;20251;-70
2022/05/02 12:09:24;;;;;;;3.80;2.85;;;;;;;18.66;28.69;94680.94;4981142;28;20205;-68
2022/05/02 12:11:55;;;;;;;3.72;2.67;;;;;;;18.68;29.19;94681.56;4973146;28;20208;-68
2022/05/02 12:14:21;;;;;;;3.80;2.75;;;;;;;18.60;29.93;94680.97;4969584;28;20262;-69
2022/05/02 12:17:06;;;;;;;3.10;2.80;;;;;;;18.57;29.24;94673.38;4969283;28;20227;-69
2022/05/02 12:19:34;;;;;;;3.53;2.90;;;;;;;18.47;30.32;94671.16;4984731;28;20295;-69
2022/05/02 12:22:06;;;;;;;6.20;3.45;;;;;;;18.38;30.97;94673.22;4976804;28;20257;-69
2022/05/02 12:24:34;;;;;;;4.55;3.08;;;;;;;18.34;29.96;94672.03;4971382;28;20207;-69
2022/05/02 12:27:06;;;;;;;3.65;2.63;;;;;;;18.32;30.02;94676.72;4968637;28;20235;-69